createdAt,value
2019-02-14T00:00:39.834Z,4.00
2019-02-14T00:01:39.763Z,4.00
2019-02-14T00:02:39.755Z,4.00
2019-02-14T00:03:39.745Z,4.00
2019-02-14T00:04:39.735Z,4.00
2019-02-14T00:05:39.729Z,4.00
2019-02-14T00:06:39.717Z,4.00
2019-02-14T00:07:39.709Z,4.00
2019-02-14T00:08:39.703Z,4.00
2019-02-14T00:09:39.687Z,4.00
2019-02-14T00:10:39.677Z,8.00
2019-02-14T00:11:39.667Z,4.00
2019-02-14T00:12:39.659Z,4.00
2019-02-14T00:13:39.652Z,4.00
2019-02-14T00:14:39.642Z,8.00
2019-02-14T00:15:39.631Z,4.00
2019-02-14T00:16:39.621Z,4.00
2019-02-14T00:17:39.611Z,4.00
2019-02-14T00:18:39.602Z,4.00
2019-02-14T00:19:39.989Z,8.00
2019-02-14T00:20:39.604Z,4.00
2019-02-14T00:21:39.573Z,4.00
2019-02-14T00:22:39.563Z,4.00
2019-02-14T00:23:39.554Z,4.00
2019-02-14T00:24:39.544Z,8.00
2019-02-14T00:25:39.536Z,8.00
2019-02-14T00:26:39.525Z,8.00
2019-02-14T00:27:39.513Z,8.00
2019-02-14T00:28:39.507Z,8.00
2019-02-14T00:29:39.494Z,4.00
2019-02-14T00:30:39.521Z,8.00
2019-02-14T00:31:39.505Z,4.00
2019-02-14T00:32:39.504Z,4.00
2019-02-14T00:33:39.602Z,4.00
2019-02-14T00:34:39.447Z,4.00
2019-02-14T00:35:39.437Z,4.00
2019-02-14T00:36:39.573Z,4.00
2019-02-14T00:37:39.424Z,4.00
2019-02-14T00:38:40.372Z,4.00
2019-02-14T00:39:39.589Z,4.00
2019-02-14T00:40:39.995Z,4.00
2019-02-14T00:41:39.376Z,8.00
2019-02-14T00:42:39.371Z,4.00
2019-02-14T00:43:39.364Z,4.00
2019-02-14T00:44:39.491Z,4.00
2019-02-14T00:45:39.337Z,8.00
2019-02-14T00:46:39.326Z,4.00
2019-02-14T00:47:39.319Z,4.00
2019-02-14T00:48:39.377Z,8.00
2019-02-14T00:49:39.301Z,4.00
2019-02-14T00:50:39.556Z,4.00
2019-02-14T00:51:39.276Z,4.00
2019-02-14T00:52:39.268Z,4.00
2019-02-14T00:53:39.259Z,4.00
2019-02-14T00:54:39.247Z,4.00
2019-02-14T00:55:39.241Z,4.00
2019-02-14T00:56:39.229Z,4.00
2019-02-14T00:57:39.217Z,4.00
2019-02-14T00:58:39.207Z,4.00
2019-02-14T00:59:39.196Z,4.00
2019-02-14T01:00:39.186Z,4.00
2019-02-14T01:01:39.178Z,4.00
2019-02-14T01:02:39.166Z,4.00
2019-02-14T01:03:39.156Z,4.00
2019-02-14T01:04:39.148Z,4.00
2019-02-14T01:05:39.142Z,4.00
2019-02-14T01:06:39.127Z,4.00
2019-02-14T01:07:39.117Z,4.00
2019-02-14T01:08:39.105Z,4.00
2019-02-14T01:09:39.095Z,4.00
2019-02-14T01:10:39.086Z,4.00
2019-02-14T01:11:39.073Z,4.00
2019-02-14T01:12:39.064Z,4.00
2019-02-14T01:13:39.058Z,4.00
2019-02-14T01:14:39.044Z,4.00
2019-02-14T01:15:39.040Z,4.00
2019-02-14T01:16:39.026Z,4.00
2019-02-14T01:17:39.012Z,4.00
2019-02-14T01:18:39.003Z,4.00
2019-02-14T01:19:38.995Z,4.00
2019-02-14T01:20:38.982Z,4.00
2019-02-14T01:21:38.976Z,4.00
2019-02-14T01:22:38.963Z,4.00
2019-02-14T01:23:38.956Z,4.00
2019-02-14T01:24:38.943Z,4.00
2019-02-14T01:25:38.932Z,4.00
2019-02-14T01:26:38.921Z,4.00
2019-02-14T01:27:38.912Z,4.00
2019-02-14T01:28:38.903Z,4.00
2019-02-14T01:29:38.893Z,4.00
2019-02-14T01:30:38.887Z,4.00
2019-02-14T01:31:38.872Z,4.00
2019-02-14T01:32:38.865Z,4.00
2019-02-14T01:33:38.852Z,4.00
2019-02-14T01:34:38.839Z,4.00
2019-02-14T01:35:41.939Z,4.00
2019-02-14T01:36:38.818Z,4.00
2019-02-14T01:37:38.811Z,4.00
2019-02-14T01:38:38.800Z,4.00
2019-02-14T01:39:38.791Z,4.00
2019-02-14T01:40:38.776Z,4.00
2019-02-14T01:41:38.768Z,4.00
2019-02-14T01:42:38.760Z,4.00
2019-02-14T01:43:38.748Z,4.00
2019-02-14T01:44:38.748Z,4.00
2019-02-14T01:45:38.725Z,4.00
2019-02-14T01:46:38.715Z,4.00
2019-02-14T01:47:38.705Z,4.00
2019-02-14T01:48:38.694Z,4.00
2019-02-14T01:49:38.684Z,4.00
2019-02-14T01:50:38.674Z,4.00
2019-02-14T01:51:38.671Z,4.00
2019-02-14T01:52:38.653Z,4.00
2019-02-14T01:53:38.650Z,4.00
2019-02-14T01:54:38.634Z,4.00
2019-02-14T01:55:38.626Z,4.00
2019-02-14T01:56:38.612Z,4.00
2019-02-14T01:57:38.601Z,4.00
2019-02-14T01:58:38.593Z,4.00
2019-02-14T01:59:38.584Z,4.00
2019-02-14T02:00:38.570Z,4.00
2019-02-14T02:01:38.566Z,4.00
2019-02-14T02:02:38.551Z,4.00
2019-02-14T02:03:38.538Z,4.00
2019-02-14T02:04:38.528Z,4.00
2019-02-14T02:05:38.540Z,4.00
2019-02-14T02:06:38.507Z,4.00
2019-02-14T02:07:38.502Z,4.00
2019-02-14T02:08:38.488Z,4.00
2019-02-14T02:09:38.476Z,4.00
2019-02-14T02:10:38.483Z,4.00
2019-02-14T02:11:38.465Z,4.00
2019-02-14T02:12:39.155Z,4.00
2019-02-14T02:13:38.469Z,4.00
2019-02-14T02:14:38.423Z,4.00
2019-02-14T02:15:38.412Z,4.00
2019-02-14T02:16:38.400Z,4.00
2019-02-14T02:17:38.395Z,4.00
2019-02-14T02:18:38.381Z,4.00
2019-02-14T02:19:38.373Z,4.00
2019-02-14T02:20:38.359Z,4.00
2019-02-14T02:21:38.347Z,4.00
2019-02-14T02:22:38.347Z,4.00
2019-02-14T02:23:38.329Z,4.00
2019-02-14T02:24:38.320Z,4.00
2019-02-14T02:25:38.307Z,4.00
2019-02-14T02:26:38.295Z,4.00
2019-02-14T02:27:38.283Z,4.00
2019-02-14T02:28:38.274Z,4.00
2019-02-14T02:29:38.264Z,4.00
2019-02-14T02:30:38.253Z,4.00
2019-02-14T02:31:38.243Z,4.00
2019-02-14T02:32:38.236Z,4.00
2019-02-14T02:33:38.222Z,4.00
2019-02-14T02:34:38.215Z,4.00
2019-02-14T02:35:38.200Z,4.00
2019-02-14T02:36:38.188Z,4.00
2019-02-14T02:37:38.177Z,4.00
2019-02-14T02:38:38.169Z,4.00
2019-02-14T02:39:38.155Z,4.00
2019-02-14T02:40:38.146Z,4.00
2019-02-14T02:41:38.137Z,4.00
2019-02-14T02:42:38.124Z,4.00
2019-02-14T02:43:38.112Z,4.00
2019-02-14T02:44:38.102Z,4.00
2019-02-14T02:45:38.092Z,4.00
2019-02-14T02:46:38.082Z,4.00
2019-02-14T02:47:38.073Z,4.00
2019-02-14T02:48:38.058Z,4.00
2019-02-14T02:49:38.047Z,4.00
2019-02-14T02:50:38.037Z,4.00
2019-02-14T02:51:38.046Z,4.00
2019-02-14T02:52:38.016Z,4.00
2019-02-14T02:53:38.007Z,4.00
2019-02-14T02:54:37.998Z,4.00
2019-02-14T02:55:37.987Z,4.00
2019-02-14T02:56:37.976Z,4.00
2019-02-14T02:57:37.965Z,4.00
2019-02-14T02:58:37.950Z,4.00
2019-02-14T02:59:37.944Z,4.00
2019-02-14T03:00:37.934Z,4.00
2019-02-14T03:01:37.918Z,4.00
2019-02-14T03:02:37.911Z,4.00
2019-02-14T03:03:37.897Z,4.00
2019-02-14T03:04:37.902Z,4.00
2019-02-14T03:05:37.877Z,4.00
2019-02-14T03:06:37.869Z,4.00
2019-02-14T03:07:37.853Z,4.00
2019-02-14T03:08:37.843Z,4.00
2019-02-14T03:09:37.840Z,4.00
2019-02-14T03:10:37.824Z,4.00
2019-02-14T03:11:37.812Z,4.00
2019-02-14T03:12:37.803Z,4.00
2019-02-14T03:13:37.907Z,4.00
2019-02-14T03:14:37.778Z,4.00
2019-02-14T03:15:37.773Z,4.00
2019-02-14T03:16:37.756Z,4.00
2019-02-14T03:17:37.747Z,4.00
2019-02-14T03:18:37.735Z,4.00
2019-02-14T03:19:37.725Z,4.00
2019-02-14T03:20:37.716Z,4.00
2019-02-14T03:21:37.700Z,4.00
2019-02-14T03:22:37.689Z,4.00
2019-02-14T03:23:37.684Z,4.00
2019-02-14T03:24:37.671Z,4.00
2019-02-14T03:25:37.659Z,4.00
2019-02-14T03:26:37.651Z,8.00
2019-02-14T03:27:37.640Z,4.00
2019-02-14T03:28:37.624Z,4.00
2019-02-14T03:29:37.614Z,4.00
2019-02-14T03:30:37.606Z,4.00
2019-02-14T03:31:37.595Z,4.00
2019-02-14T03:32:37.585Z,4.00
2019-02-14T03:33:37.570Z,4.00
2019-02-14T03:34:37.560Z,4.00
2019-02-14T03:35:37.554Z,4.00
2019-02-14T03:36:37.538Z,4.00
2019-02-14T03:37:37.528Z,4.00
2019-02-14T03:38:37.517Z,4.00
2019-02-14T03:39:37.507Z,4.00
2019-02-14T03:40:37.494Z,4.00
2019-02-14T03:41:37.485Z,4.00
2019-02-14T03:42:37.476Z,4.00
2019-02-14T03:43:37.466Z,4.00
2019-02-14T03:44:38.289Z,4.00
2019-02-14T03:45:37.444Z,4.00
2019-02-14T03:46:37.430Z,4.00
2019-02-14T03:47:37.418Z,4.00
2019-02-14T03:48:37.407Z,4.00
2019-02-14T03:49:37.397Z,4.00
2019-02-14T03:50:37.394Z,4.00
2019-02-14T03:51:37.374Z,4.00
2019-02-14T03:52:37.364Z,4.00
2019-02-14T03:53:37.350Z,4.00
2019-02-14T03:54:37.350Z,4.00
2019-02-14T03:55:37.332Z,4.00
2019-02-14T03:56:37.348Z,4.00
2019-02-14T03:57:37.308Z,4.00
2019-02-14T03:58:37.299Z,4.00
2019-02-14T03:59:37.286Z,4.00
2019-02-14T04:00:37.281Z,4.00
2019-02-14T04:01:37.263Z,4.00
2019-02-14T04:02:37.252Z,4.00
2019-02-14T04:03:37.243Z,4.00
2019-02-14T04:04:37.229Z,4.00
2019-02-14T04:05:37.219Z,4.00
2019-02-14T04:06:37.206Z,4.00
2019-02-14T04:07:37.197Z,4.00
2019-02-14T04:08:37.185Z,4.00
2019-02-14T04:09:37.174Z,8.00
2019-02-14T04:10:37.166Z,4.00
2019-02-14T04:11:37.153Z,4.00
2019-02-14T04:12:37.145Z,4.00
2019-02-14T04:13:37.132Z,4.00
2019-02-14T04:14:37.117Z,4.00
2019-02-14T04:15:37.109Z,4.00
2019-02-14T04:16:37.097Z,4.00
2019-02-14T04:17:37.084Z,4.00
2019-02-14T04:18:37.075Z,4.00
2019-02-14T04:19:37.063Z,8.00
2019-02-14T04:20:37.052Z,8.00
2019-02-14T04:21:37.041Z,8.00
2019-02-14T04:22:37.028Z,4.00
2019-02-14T04:23:37.020Z,8.00
2019-02-14T04:24:37.006Z,8.00
2019-02-14T04:25:37.026Z,8.00
2019-02-14T04:26:36.980Z,12.00
2019-02-14T04:27:36.980Z,12.00
2019-02-14T04:28:36.968Z,12.00
2019-02-14T04:29:36.954Z,12.00
2019-02-14T04:30:36.941Z,12.00
2019-02-14T04:31:36.930Z,12.00
2019-02-14T04:32:36.918Z,12.00
2019-02-14T04:33:36.909Z,12.00
2019-02-14T04:34:36.894Z,12.00
2019-02-14T04:35:36.890Z,12.00
2019-02-14T04:36:36.877Z,12.00
2019-02-14T04:37:36.861Z,12.00
2019-02-14T04:38:36.852Z,12.00
2019-02-14T04:39:36.841Z,12.00
2019-02-14T04:40:36.832Z,12.00
2019-02-14T04:41:36.819Z,12.00
2019-02-14T04:42:36.809Z,12.00
2019-02-14T04:43:36.795Z,12.00
2019-02-14T04:44:36.784Z,12.00
2019-02-14T04:45:37.028Z,12.00
2019-02-14T04:46:36.762Z,12.00
2019-02-14T04:47:36.752Z,12.00
2019-02-14T04:48:36.740Z,12.00
2019-02-14T04:49:36.732Z,12.00
2019-02-14T04:50:36.714Z,12.00
2019-02-14T04:51:36.706Z,12.00
2019-02-14T04:52:36.693Z,12.00
2019-02-14T04:53:36.682Z,12.00
2019-02-14T04:54:36.671Z,12.00
2019-02-14T04:55:36.662Z,12.00
2019-02-14T04:56:36.654Z,12.00
2019-02-14T04:57:36.638Z,12.00
2019-02-14T04:58:36.627Z,12.00
2019-02-14T04:59:36.617Z,12.00
2019-02-14T05:00:36.602Z,12.00
2019-02-14T05:01:36.594Z,12.00
2019-02-14T05:02:36.585Z,12.00
2019-02-14T05:03:36.571Z,12.00
2019-02-14T05:04:36.560Z,12.00
2019-02-14T05:05:36.552Z,12.00
2019-02-14T05:06:44.108Z,12.00
2019-02-14T05:07:36.531Z,12.00
2019-02-14T05:08:36.515Z,12.00
2019-02-14T05:09:36.507Z,12.00
2019-02-14T05:10:36.492Z,12.00
2019-02-14T05:11:36.481Z,12.00
2019-02-14T05:12:36.469Z,12.00
2019-02-14T05:13:36.461Z,12.00
2019-02-14T05:14:36.450Z,12.00
2019-02-14T05:15:36.436Z,12.00
2019-02-14T05:16:36.418Z,12.00
2019-02-14T05:17:36.411Z,12.00
2019-02-14T05:18:36.401Z,12.00
2019-02-14T05:19:36.392Z,12.00
2019-02-14T05:20:36.380Z,12.00
2019-02-14T05:21:36.369Z,12.00
2019-02-14T05:22:36.364Z,12.00
2019-02-14T05:23:36.353Z,12.00
2019-02-14T05:24:36.334Z,12.00
2019-02-14T05:25:36.324Z,12.00
2019-02-14T05:26:36.316Z,12.00
2019-02-14T05:27:36.301Z,12.00
2019-02-14T05:28:36.290Z,12.00
2019-02-14T05:29:36.280Z,12.00
2019-02-14T05:30:36.272Z,12.00
2019-02-14T05:31:37.577Z,12.00
2019-02-14T05:32:36.246Z,12.00
2019-02-14T05:33:36.236Z,12.00
2019-02-14T05:34:36.224Z,12.00
2019-02-14T05:35:36.212Z,12.00
2019-02-14T05:36:36.199Z,8.00
2019-02-14T05:37:36.190Z,8.00
2019-02-14T05:38:36.179Z,8.00
2019-02-14T05:39:36.166Z,8.00
2019-02-14T05:40:36.157Z,8.00
2019-02-14T05:41:36.146Z,8.00
2019-02-14T05:42:36.134Z,8.00
2019-02-14T05:43:36.123Z,8.00
2019-02-14T05:44:36.115Z,8.00
2019-02-14T05:45:36.100Z,8.00
2019-02-14T05:46:36.084Z,8.00
2019-02-14T05:47:36.079Z,8.00
2019-02-14T05:48:36.068Z,8.00
2019-02-14T05:49:36.057Z,8.00
2019-02-14T05:50:36.046Z,8.00
2019-02-14T05:51:36.032Z,8.00
2019-02-14T05:52:36.020Z,8.00
2019-02-14T05:53:36.012Z,8.00
2019-02-14T05:54:35.997Z,8.00
2019-02-14T05:55:35.990Z,8.00
2019-02-14T05:56:35.976Z,8.00
2019-02-14T05:57:35.966Z,8.00
2019-02-14T05:58:35.954Z,8.00
2019-02-14T05:59:35.944Z,12.00
2019-02-14T06:00:35.932Z,12.00
2019-02-14T06:01:37.453Z,12.00
2019-02-14T06:02:35.908Z,12.00
2019-02-14T06:03:35.900Z,12.00
2019-02-14T06:04:35.891Z,8.00
2019-02-14T06:05:35.877Z,8.00
2019-02-14T06:06:35.867Z,8.00
2019-02-14T06:07:35.855Z,12.00
2019-02-14T06:08:35.842Z,12.00
2019-02-14T06:09:35.833Z,12.00
2019-02-14T06:10:35.821Z,12.00
2019-02-14T06:11:35.811Z,12.00
2019-02-14T06:12:35.797Z,12.00
2019-02-14T06:13:35.790Z,8.00
2019-02-14T06:14:35.775Z,12.00
2019-02-14T06:15:35.765Z,12.00
2019-02-14T06:16:35.754Z,12.00
2019-02-14T06:17:36.189Z,16.00
2019-02-14T06:18:35.732Z,16.00
2019-02-14T06:19:35.720Z,16.00
2019-02-14T06:20:35.707Z,20.00
2019-02-14T06:21:35.701Z,24.00
2019-02-14T06:22:35.687Z,24.00
2019-02-14T06:23:35.683Z,28.00
2019-02-14T06:24:35.666Z,28.00
2019-02-14T06:25:35.652Z,32.00
2019-02-14T06:26:35.643Z,32.00
2019-02-14T06:27:35.630Z,36.00
2019-02-14T06:28:37.322Z,40.00
2019-02-14T06:29:35.611Z,40.00
2019-02-14T06:30:35.597Z,44.00
2019-02-14T06:31:35.589Z,48.00
2019-02-14T06:32:35.573Z,52.00
2019-02-14T06:33:35.562Z,52.00
2019-02-14T06:34:35.551Z,56.00
2019-02-14T06:35:35.547Z,60.00
2019-02-14T06:36:35.530Z,64.00
2019-02-14T06:37:35.518Z,64.00
2019-02-14T06:38:35.506Z,68.00
2019-02-14T06:39:35.495Z,72.00
2019-02-14T06:40:35.485Z,76.00
2019-02-14T06:41:35.476Z,80.00
2019-02-14T06:42:35.466Z,88.00
2019-02-14T06:43:35.448Z,96.00
2019-02-14T06:44:35.440Z,108.00
2019-02-14T06:45:36.954Z,116.00
2019-02-14T06:46:35.418Z,124.00
2019-02-14T06:47:35.407Z,136.00
2019-02-14T06:48:35.392Z,144.00
2019-02-14T06:49:35.385Z,156.00
2019-02-14T06:50:35.372Z,168.00
2019-02-14T06:51:35.370Z,172.00
2019-02-14T06:52:35.353Z,180.00
2019-02-14T06:53:35.337Z,184.00
2019-02-14T06:54:35.333Z,200.00
2019-02-14T06:55:35.319Z,208.00
2019-02-14T06:56:35.306Z,220.00
2019-02-14T06:57:35.299Z,220.00
2019-02-14T06:58:35.285Z,224.00
2019-02-14T06:59:35.272Z,220.00
2019-02-14T07:00:35.262Z,224.00
2019-02-14T07:01:35.251Z,224.00
2019-02-14T07:02:35.241Z,232.00
2019-02-14T07:03:35.229Z,240.00
2019-02-14T07:04:35.219Z,248.00
2019-02-14T07:05:35.210Z,256.00
2019-02-14T07:06:35.196Z,268.00
2019-02-14T07:07:35.185Z,280.00
2019-02-14T07:08:35.169Z,296.00
2019-02-14T07:09:35.162Z,312.00
2019-02-14T07:10:35.154Z,328.00
2019-02-14T07:11:35.138Z,344.00
2019-02-14T07:12:35.128Z,364.00
2019-02-14T07:13:35.120Z,380.00
2019-02-14T07:14:35.111Z,384.00
2019-02-14T07:15:35.093Z,388.00
2019-02-14T07:16:35.083Z,384.00
2019-02-14T07:17:35.072Z,376.00
2019-02-14T07:18:49.965Z,380.00
2019-02-14T07:19:35.053Z,388.00
2019-02-14T07:20:35.037Z,396.00
2019-02-14T07:21:35.025Z,412.00
2019-02-14T07:22:35.018Z,440.00
2019-02-14T07:23:35.003Z,468.00
2019-02-14T07:24:34.994Z,488.00
2019-02-14T07:25:34.981Z,504.00
2019-02-14T07:26:34.972Z,524.00
2019-02-14T07:27:34.960Z,536.00
2019-02-14T07:28:34.949Z,556.00
2019-02-14T07:29:34.937Z,572.00
2019-02-14T07:30:34.930Z,592.00
2019-02-14T07:31:34.911Z,608.00
2019-02-14T07:32:34.900Z,608.00
2019-02-14T07:33:34.895Z,600.00
2019-02-14T07:34:34.879Z,660.00
2019-02-14T07:35:34.869Z,580.00
2019-02-14T07:36:34.862Z,576.00
2019-02-14T07:37:34.845Z,576.00
2019-02-14T07:38:34.837Z,588.00
2019-02-14T07:39:34.826Z,596.00
2019-02-14T07:40:34.814Z,604.00
2019-02-14T07:41:34.802Z,608.00
2019-02-14T07:42:34.795Z,612.00
2019-02-14T07:43:34.778Z,612.00
2019-02-14T07:44:34.768Z,620.00
2019-02-14T07:45:34.768Z,660.00
2019-02-14T07:46:34.746Z,692.00
2019-02-14T07:47:34.732Z,724.00
2019-02-14T07:48:34.723Z,756.00
2019-02-14T07:49:35.374Z,800.00
2019-02-14T07:50:34.701Z,832.00
2019-02-14T07:51:34.690Z,860.00
2019-02-14T07:52:34.680Z,876.00
2019-02-14T07:53:34.666Z,892.00
2019-02-14T07:54:34.653Z,916.00
2019-02-14T07:55:34.644Z,936.00
2019-02-14T07:56:34.636Z,976.00
2019-02-14T07:57:34.622Z,1004.00
2019-02-14T07:58:34.611Z,992.00
2019-02-14T07:59:34.603Z,992.00
2019-02-14T08:00:34.583Z,1000.00
2019-02-14T08:01:34.585Z,1016.00
2019-02-14T08:02:34.562Z,1028.00
2019-02-14T08:03:34.554Z,1044.00
2019-02-14T08:04:36.456Z,1104.00
2019-02-14T08:05:34.538Z,1152.00
2019-02-14T08:06:34.518Z,1204.00
2019-02-14T08:07:36.148Z,1224.00
2019-02-14T08:08:34.521Z,1232.00
2019-02-14T08:09:34.490Z,1232.00
2019-02-14T08:10:34.479Z,1252.00
2019-02-14T08:11:34.473Z,1272.00
2019-02-14T08:12:34.452Z,1264.00
2019-02-14T08:13:34.444Z,1260.00
2019-02-14T08:14:34.438Z,1272.00
2019-02-14T08:15:34.486Z,1304.00
2019-02-14T08:16:34.422Z,1296.00
2019-02-14T08:17:34.401Z,1276.00
2019-02-14T08:18:34.384Z,1288.00
2019-02-14T08:19:35.958Z,1312.00
2019-02-14T08:20:34.364Z,1332.00
2019-02-14T08:21:34.359Z,1372.00
2019-02-14T08:22:34.348Z,1424.00
2019-02-14T08:23:34.340Z,1444.00
2019-02-14T08:24:34.325Z,1444.00
2019-02-14T08:25:34.320Z,1452.00
2019-02-14T08:26:34.310Z,1456.00
2019-02-14T08:27:34.298Z,1452.00
2019-02-14T08:28:34.285Z,1448.00
2019-02-14T08:29:34.267Z,1436.00
2019-02-14T08:30:34.261Z,1428.00
2019-02-14T08:31:34.253Z,1452.00
2019-02-14T08:32:34.237Z,1416.00
2019-02-14T08:33:34.232Z,1388.00
2019-02-14T08:34:34.220Z,1392.00
2019-02-14T08:35:34.209Z,1368.00
2019-02-14T08:36:34.196Z,1328.00
2019-02-14T08:37:34.197Z,1304.00
2019-02-14T08:38:34.178Z,1296.00
2019-02-14T08:39:34.171Z,1280.00
2019-02-14T08:40:34.162Z,1280.00
2019-02-14T08:41:34.146Z,1320.00
2019-02-14T08:42:34.149Z,1328.00
2019-02-14T08:43:34.128Z,1332.00
2019-02-14T08:44:34.125Z,1336.00
2019-02-14T08:45:34.105Z,1348.00
2019-02-14T08:46:34.094Z,1340.00
2019-02-14T08:47:34.086Z,1344.00
2019-02-14T08:48:34.067Z,1344.00
2019-02-14T08:49:35.252Z,1368.00
2019-02-14T08:50:34.108Z,1340.00
2019-02-14T08:51:34.088Z,1304.00
2019-02-14T08:52:34.036Z,1268.00
2019-02-14T08:53:34.019Z,1204.00
2019-02-14T08:54:34.007Z,1132.00
2019-02-14T08:55:34.005Z,1060.00
2019-02-14T08:56:33.992Z,984.00
2019-02-14T08:57:34.422Z,932.00
2019-02-14T08:58:33.981Z,896.00
2019-02-14T08:59:34.208Z,880.00
2019-02-14T09:00:33.951Z,876.00
2019-02-14T09:01:33.940Z,864.00
2019-02-14T09:02:33.930Z,840.00
2019-02-14T09:03:33.921Z,824.00
2019-02-14T09:04:33.907Z,820.00
2019-02-14T09:05:33.895Z,812.00
2019-02-14T09:06:33.889Z,812.00
2019-02-14T09:07:33.881Z,832.00
2019-02-14T09:08:33.893Z,864.00
2019-02-14T09:09:33.858Z,880.00
2019-02-14T09:10:33.847Z,868.00
2019-02-14T09:11:33.834Z,852.00
2019-02-14T09:12:35.575Z,836.00
2019-02-14T09:13:33.828Z,828.00
2019-02-14T09:14:33.813Z,832.00
2019-02-14T09:15:33.793Z,840.00
2019-02-14T09:16:33.788Z,848.00
2019-02-14T09:17:34.407Z,844.00
2019-02-14T09:18:33.764Z,836.00
2019-02-14T09:19:33.759Z,840.00
2019-02-14T09:20:33.755Z,844.00
2019-02-14T09:21:34.492Z,840.00
2019-02-14T09:22:33.716Z,844.00
2019-02-14T09:23:33.708Z,848.00
2019-02-14T09:24:33.703Z,836.00
2019-02-14T09:25:33.697Z,832.00
2019-02-14T09:26:33.688Z,828.00
2019-02-14T09:27:33.670Z,828.00
2019-02-14T09:28:33.660Z,832.00
2019-02-14T09:29:33.648Z,832.00
2019-02-14T09:30:33.639Z,832.00
2019-02-14T09:31:33.628Z,840.00
2019-02-14T09:32:33.617Z,844.00
2019-02-14T09:33:33.608Z,844.00
2019-02-14T09:34:33.598Z,840.00
2019-02-14T09:35:33.586Z,840.00
2019-02-14T09:36:34.469Z,840.00
2019-02-14T09:37:33.565Z,840.00
2019-02-14T09:38:33.558Z,840.00
2019-02-14T09:39:40.783Z,844.00
2019-02-14T09:40:33.539Z,844.00
2019-02-14T09:41:33.526Z,848.00
2019-02-14T09:42:33.519Z,844.00
2019-02-14T09:43:33.503Z,844.00
2019-02-14T09:44:33.495Z,848.00
2019-02-14T09:45:33.486Z,848.00
2019-02-14T09:46:33.484Z,852.00
2019-02-14T09:47:33.464Z,856.00
2019-02-14T09:48:33.457Z,856.00
2019-02-14T09:49:33.452Z,852.00
2019-02-14T09:50:33.449Z,852.00
2019-02-14T09:51:33.434Z,852.00
2019-02-14T09:52:33.420Z,860.00
2019-02-14T09:53:33.405Z,864.00
2019-02-14T09:54:33.393Z,864.00
2019-02-14T09:55:33.384Z,872.00
2019-02-14T09:56:33.379Z,876.00
2019-02-14T09:57:33.367Z,880.00
2019-02-14T09:58:33.352Z,880.00
2019-02-14T09:59:33.358Z,880.00
2019-02-14T10:00:33.349Z,880.00
2019-02-14T10:01:33.324Z,880.00
2019-02-14T10:02:33.313Z,880.00
2019-02-14T10:03:33.323Z,884.00
2019-02-14T10:04:33.299Z,888.00
2019-02-14T10:05:33.285Z,888.00
2019-02-14T10:06:36.734Z,888.00
2019-02-14T10:07:33.285Z,892.00
2019-02-14T10:08:33.252Z,892.00
2019-02-14T10:09:33.279Z,892.00
2019-02-14T10:10:33.234Z,892.00
2019-02-14T10:11:33.225Z,896.00
2019-02-14T10:12:33.217Z,896.00
2019-02-14T10:13:33.220Z,896.00
2019-02-14T10:14:33.197Z,892.00
2019-02-14T10:15:33.193Z,888.00
2019-02-14T10:16:33.179Z,888.00
2019-02-14T10:17:33.166Z,896.00
2019-02-14T10:18:33.162Z,900.00
2019-02-14T10:19:33.145Z,900.00
2019-02-14T10:20:33.136Z,900.00
2019-02-14T10:21:33.141Z,900.00
2019-02-14T10:22:33.306Z,900.00
2019-02-14T10:23:33.108Z,908.00
2019-02-14T10:24:33.098Z,916.00
2019-02-14T10:25:33.086Z,920.00
2019-02-14T10:26:33.081Z,912.00
2019-02-14T10:27:33.068Z,896.00
2019-02-14T10:28:33.060Z,888.00
2019-02-14T10:29:33.052Z,880.00
2019-02-14T10:30:33.046Z,880.00
2019-02-14T10:31:33.032Z,876.00
2019-02-14T10:32:33.023Z,872.00
2019-02-14T10:33:33.013Z,872.00
2019-02-14T10:34:33.005Z,872.00
2019-02-14T10:35:32.999Z,872.00
2019-02-14T10:36:32.983Z,876.00
2019-02-14T10:37:32.974Z,880.00
2019-02-14T10:38:32.964Z,876.00
2019-02-14T10:39:32.954Z,884.00
2019-02-14T10:40:32.950Z,880.00
2019-02-14T10:41:32.937Z,884.00
2019-02-14T10:42:32.929Z,884.00
2019-02-14T10:43:32.917Z,884.00
2019-02-14T10:44:32.906Z,888.00
2019-02-14T10:45:32.900Z,892.00
2019-02-14T10:46:32.890Z,896.00
2019-02-14T10:47:32.890Z,904.00
2019-02-14T10:48:32.868Z,908.00
2019-02-14T10:49:32.865Z,920.00
2019-02-14T10:50:32.854Z,924.00
2019-02-14T10:51:33.072Z,932.00
2019-02-14T10:52:32.838Z,940.00
2019-02-14T10:53:33.765Z,948.00
2019-02-14T10:54:32.817Z,956.00
2019-02-14T10:55:32.814Z,960.00
2019-02-14T10:56:32.805Z,964.00
2019-02-14T10:57:32.793Z,972.00
2019-02-14T10:58:32.911Z,976.00
2019-02-14T10:59:32.777Z,972.00
2019-02-14T11:00:32.759Z,972.00
2019-02-14T11:01:32.750Z,968.00
2019-02-14T11:02:32.745Z,960.00
2019-02-14T11:03:32.866Z,948.00
2019-02-14T11:04:32.727Z,940.00
2019-02-14T11:05:32.718Z,936.00
2019-02-14T11:06:33.404Z,916.00
2019-02-14T11:07:32.882Z,900.00
2019-02-14T11:08:32.690Z,908.00
2019-02-14T11:09:32.684Z,908.00
2019-02-14T11:10:32.676Z,908.00
2019-02-14T11:11:32.693Z,916.00
2019-02-14T11:12:32.669Z,908.00
2019-02-14T11:13:32.651Z,900.00
2019-02-14T11:14:32.641Z,904.00
2019-02-14T11:15:32.631Z,900.00
2019-02-14T11:16:32.623Z,900.00
2019-02-14T11:17:32.623Z,892.00
2019-02-14T11:18:32.606Z,896.00
2019-02-14T11:19:32.602Z,892.00
2019-02-14T11:20:32.587Z,892.00
2019-02-14T11:21:32.582Z,880.00
2019-02-14T11:22:32.575Z,876.00
2019-02-14T11:23:32.558Z,876.00
2019-02-14T11:24:32.572Z,880.00
2019-02-14T11:25:32.547Z,880.00
2019-02-14T11:26:32.539Z,876.00
2019-02-14T11:27:32.529Z,880.00
2019-02-14T11:28:32.524Z,876.00
2019-02-14T11:29:32.519Z,880.00
2019-02-14T11:30:32.506Z,884.00
2019-02-14T11:31:34.608Z,880.00
2019-02-14T11:32:32.493Z,884.00
2019-02-14T11:33:32.497Z,872.00
2019-02-14T11:34:32.474Z,880.00
2019-02-14T11:35:32.482Z,884.00
2019-02-14T11:36:32.554Z,880.00
2019-02-14T11:37:32.451Z,880.00
2019-02-14T11:38:40.446Z,856.00
2019-02-14T11:39:32.438Z,872.00
2019-02-14T11:40:32.426Z,868.00
2019-02-14T11:41:32.421Z,868.00
2019-02-14T11:42:33.973Z,880.00
2019-02-14T11:43:33.975Z,876.00
2019-02-14T11:44:39.548Z,876.00
2019-02-14T11:45:32.392Z,880.00
2019-02-14T11:46:32.389Z,880.00
2019-02-14T11:47:32.373Z,884.00
2019-02-14T11:48:32.367Z,884.00
2019-02-14T11:49:32.358Z,872.00
2019-02-14T11:50:32.350Z,888.00
2019-02-14T11:51:32.340Z,876.00
2019-02-14T11:52:32.334Z,884.00
2019-02-14T11:53:32.326Z,876.00
2019-02-14T11:54:32.464Z,888.00
2019-02-14T11:55:32.311Z,880.00
2019-02-14T11:56:32.302Z,888.00
2019-02-14T11:57:33.982Z,892.00
2019-02-14T11:58:32.297Z,876.00
2019-02-14T11:59:32.282Z,888.00
2019-02-14T12:00:32.278Z,884.00
2019-02-14T12:01:32.262Z,884.00
2019-02-14T12:02:32.260Z,884.00
2019-02-14T12:03:32.258Z,868.00
2019-02-14T12:04:32.245Z,876.00
2019-02-14T12:05:32.237Z,888.00
2019-02-14T12:06:32.250Z,892.00
2019-02-14T12:07:32.235Z,872.00
2019-02-14T12:08:32.220Z,880.00
2019-02-14T12:09:32.212Z,888.00
2019-02-14T12:10:32.199Z,880.00
2019-02-14T12:11:32.210Z,884.00
2019-02-14T12:12:32.191Z,884.00
2019-02-14T12:13:32.178Z,876.00
2019-02-14T12:14:32.175Z,880.00
2019-02-14T12:15:32.173Z,888.00
2019-02-14T12:16:32.472Z,888.00
2019-02-14T12:17:32.155Z,892.00
2019-02-14T12:18:32.145Z,900.00
2019-02-14T12:19:32.135Z,876.00
2019-02-14T12:20:32.128Z,900.00
2019-02-14T12:21:32.154Z,904.00
2019-02-14T12:22:32.121Z,904.00
2019-02-14T12:23:32.128Z,972.00
2019-02-14T12:24:32.103Z,984.00
2019-02-14T12:25:32.839Z,984.00
2019-02-14T12:26:32.114Z,1004.00
2019-02-14T12:27:32.081Z,1008.00
2019-02-14T12:28:32.078Z,1004.00
2019-02-14T12:29:32.068Z,1012.00
2019-02-14T12:30:32.061Z,1004.00
2019-02-14T12:31:32.057Z,1000.00
2019-02-14T12:32:32.045Z,988.00
2019-02-14T12:33:32.039Z,972.00
2019-02-14T12:34:32.035Z,980.00
2019-02-14T12:35:33.980Z,980.00
2019-02-14T12:36:32.029Z,988.00
2019-02-14T12:37:32.015Z,988.00
2019-02-14T12:38:35.981Z,984.00
2019-02-14T12:39:33.996Z,988.00
2019-02-14T12:40:31.993Z,984.00
2019-02-14T12:41:32.010Z,976.00
2019-02-14T12:42:32.000Z,980.00
2019-02-14T12:43:31.991Z,984.00
2019-02-14T12:44:31.968Z,976.00
2019-02-14T12:45:32.012Z,992.00
2019-02-14T12:46:31.957Z,968.00
2019-02-14T12:47:31.949Z,992.00
2019-02-14T12:48:31.939Z,992.00